KBOI/BOI METAR and TAF weather

Enter ICAO airport designator
Station Type Date Time Source
KBOI METAR 2021/03/01 02:53 UTC NOAA

KBOI 010253Z 11008KT 10SM OVC055 03/M06 A3033 RMK AO2 SLP296 T00281056 56002


Station Type Date Time Source
KBOI Decoded METAR 2021/03/01 02:53 UTC NOAA

BOISE AIR TERMINAL, ID, United States (KBOI) 43-34N 116-14W 875M
Feb 28, 2021 - 09:53 PM EST / 2021.03.01 0253 UTC
Wind: from the ESE (110 degrees) at 9 MPH (8 KT):0
Visibility: 10 mile(s):0
Sky conditions: overcast
Temperature: 37.0 F (2.8 C)
Dew Point: 21.9 F (-5.6 C)
Relative Humidity: 53%
Pressure (altimeter): 30.33 in. Hg (1027 hPa)
Pressure tendency: 0.01 inches (0.2 hPa) lower than three hours ago
ob: KBOI 010253Z 11008KT 10SM OVC055 03/M06 A3033 RMK AO2 SLP296 T00281056 56002
cycle: 3

Station Type Date Time Source
KBOI TAF 2021/02/28 18:39 UTC NOAA

TAF KBOI 281736Z 2818/0118 13005KT P6SM SCT070
FM282000 32006KT P6SM BKN070
FM010200 14005KT P6SM SKC

Example: see airport list